This is the latest recevied weather packets stored in our database for station/object WX4TAZ. If no packets are shown the sender has not sent any weather packets the latest 10 day(s).
| Time | Temp. | Humidity | Pressure | Rain* | Wind** | Luminosity | Snow |
|---|---|---|---|---|---|---|---|
| 1777631463 | 4.44° C | 54% | 1016.5 hPa | 0 mm | - | - | - |
| 1777630563 | 5° C | 52% | 1016.5 hPa | 0 mm | - | - | - |
| 1777628763 | 5° C | 51% | 1016.4 hPa | 0 mm | - | - | - |
| 1777623664 | 6.11° C | 44% | 1016.5 hPa | 0 mm | - | - | - |
| 1777620363 | 6.67° C | 43% | 1017 hPa | 0 mm | - | - | - |
| 1777608664 | 7.22° C | 37% | 1017.7 hPa | 0 mm | - | - | - |
| 1777605063 | 7.22° C | 38% | 1018 hPa | 0 mm | - | - | - |
| 1777604762 | 7.22° C | 38% | 1018 hPa | 0 mm | - | - | - |
| 1777596963 | 11.11° C | 28% | 1017.3 hPa | 0 mm | - | - | - |
| 1777594563 | 12.22° C | 27% | 1017 hPa | 0 mm | - | - | - |
| 1777593664 | 11.67° C | 29% | 1016.9 hPa | 0 mm | - | - | - |
| 1777593063 | 11.67° C | 28% | 1017 hPa | 0 mm | - | - | - |
| 1777588563 | 11.67° C | 31% | 1016.9 hPa | 0 mm | - | - | - |
| 1777583464 | 12.22° C | 31% | 1017.3 hPa | 0 mm | - | - | - |
| 1777581363 | 12.78° C | 32% | 1017.1 hPa | 0 mm | - | - | - |
| 1777573263 | 11.67° C | 51% | 1018.1 hPa | 0 mm | - | - | - |
| 1777572064 | 11.11° C | 53% | 1018 hPa | 0 mm | - | - | - |
| 1777568464 | 9.44° C | 58% | 1018.7 hPa | 0 mm | - | - | - |
| 1777562763 | 10.56° C | 61% | 1017.4 hPa | 0 mm | - | - | - |
| 1777561563 | 10.56° C | 63% | 1017.1 hPa | 0 mm | - | - | - |
| 1777558264 | 10° C | 69% | 1016.4 hPa | 0 mm | - | - | - |
| 1777551363 | 7.78° C | 71% | 1015.1 hPa | 0 mm | - | - | - |
| 1777550464 | 7.78° C | 71% | 1015.2 hPa | 0 mm | - | - | - |
| 1777546263 | 7.78° C | 69% | 1014.8 hPa | 0 mm | - | - | - |
| 1777536663 | 7.78° C | 79% | 1015.5 hPa | 0.25 mm | - | - | - |
* Rain latest hour (hover to see other rain measurements)
** Current wind speed in m/s (hover to see current wind gust speed)